Terminal Aerodrome Forecast
Issued by NWS

Home | Current Version | Previous Version | Text Only | Print | Product List | Glossary On
Versions: 1 2 3 4 5 6 7 8 9 10 11 12 13 14 15
000
FTUS44 KLZK 051107 AAB
TAFHRO
TAF AMD
KHRO 051107Z 0511/0606 14003KT P6SM VCSH SCT020 BKN050 OVC100
      TEMPO 0511/0513 5SM BR SCT002
     FM051300 17007KT P6SM VCSH BKN050 OVC100
     FM051800 19007KT P6SM VCTS SCT050CB BKN100 BKN250=

USA.gov is the U.S. government's official web portal to all federal, state and local government web resources and services.